sensor_id;sensor_type;location;lat;lon;timestamp;P1;durP1;ratioP1;P2;durP2;ratioP2
69319;SDS011;56467;53.502;49.248;2023-06-22T00:00:49;1.52;;;1.13;;
69319;SDS011;56467;53.502;49.248;2023-06-22T00:03:15;1.10;;;0.90;;
69319;SDS011;56467;53.502;49.248;2023-06-22T00:05:45;1.75;;;1.10;;
69319;SDS011;56467;53.502;49.248;2023-06-22T00:08:11;1.60;;;1.00;;
69319;SDS011;56467;53.502;49.248;2023-06-22T00:10:37;1.50;;;1.00;;
69319;SDS011;56467;53.502;49.248;2023-06-22T00:13:02;1.55;;;1.00;;
69319;SDS011;56467;53.502;49.248;2023-06-22T00:15:28;0.95;;;0.95;;
69319;SDS011;56467;53.502;49.248;2023-06-22T00:17:54;1.90;;;1.10;;
69319;SDS011;56467;53.502;49.248;2023-06-22T00:20:22;2.00;;;1.00;;
69319;SDS011;56467;53.502;49.248;2023-06-22T00:22:47;1.17;;;0.88;;
69319;SDS011;56467;53.502;49.248;2023-06-22T00:25:13;1.58;;;0.90;;
69319;SDS011;56467;53.502;49.248;2023-06-22T00:27:39;1.20;;;1.00;;
69319;SDS011;56467;53.502;49.248;2023-06-22T00:30:04;2.55;;;1.00;;
69319;SDS011;56467;53.502;49.248;2023-06-22T00:32:31;1.85;;;1.00;;
69319;SDS011;56467;53.502;49.248;2023-06-22T00:34:56;1.65;;;1.00;;
69319;SDS011;56467;53.502;49.248;2023-06-22T00:37:22;1.05;;;0.95;;
69319;SDS011;56467;53.502;49.248;2023-06-22T00:39:50;1.38;;;1.02;;
69319;SDS011;56467;53.502;49.248;2023-06-22T00:42:16;2.30;;;1.10;;
69319;SDS011;56467;53.502;49.248;2023-06-22T00:44:42;1.58;;;1.00;;
69319;SDS011;56467;53.502;49.248;2023-06-22T00:47:10;1.88;;;1.20;;
69319;SDS011;56467;53.502;49.248;2023-06-22T00:49:38;1.20;;;0.93;;
69319;SDS011;56467;53.502;49.248;2023-06-22T00:52:04;1.73;;;1.10;;
69319;SDS011;56467;53.502;49.248;2023-06-22T00:54:38;1.75;;;1.10;;
69319;SDS011;56467;53.502;49.248;2023-06-22T00:57:13;1.20;;;0.82;;
69319;SDS011;56467;53.502;49.248;2023-06-22T00:59:42;1.42;;;1.15;;
69319;SDS011;56467;53.502;49.248;2023-06-22T01:02:11;1.77;;;1.00;;
69319;SDS011;56467;53.502;49.248;2023-06-22T01:04:37;1.13;;;1.00;;
69319;SDS011;56467;53.502;49.248;2023-06-22T01:07:10;1.67;;;0.98;;
69319;SDS011;56467;53.502;49.248;2023-06-22T01:12:48;1.55;;;0.90;;
69319;SDS011;56467;53.502;49.248;2023-06-22T01:15:34;2.10;;;0.95;;
69319;SDS011;56467;53.502;49.248;2023-06-22T01:18:04;1.75;;;0.90;;
69319;SDS011;56467;53.502;49.248;2023-06-22T01:20:34;1.30;;;0.98;;
69319;SDS011;56467;53.502;49.248;2023-06-22T01:25:46;1.10;;;1.00;;
69319;SDS011;56467;53.502;49.248;2023-06-22T01:28:40;2.22;;;1.02;;
69319;SDS011;56467;53.502;49.248;2023-06-22T01:31:10;1.77;;;1.10;;
69319;SDS011;56467;53.502;49.248;2023-06-22T01:33:39;1.50;;;0.98;;
69319;SDS011;56467;53.502;49.248;2023-06-22T01:36:08;1.00;;;0.90;;
69319;SDS011;56467;53.502;49.248;2023-06-22T01:38:34;0.95;;;0.73;;
69319;SDS011;56467;53.502;49.248;2023-06-22T01:41:02;1.17;;;0.90;;
69319;SDS011;56467;53.502;49.248;2023-06-22T01:43:28;0.90;;;0.90;;
69319;SDS011;56467;53.502;49.248;2023-06-22T01:45:55;1.88;;;1.10;;
69319;SDS011;56467;53.502;49.248;2023-06-22T01:48:22;1.00;;;0.90;;
69319;SDS011;56467;53.502;49.248;2023-06-22T01:50:49;1.95;;;1.00;;
69319;SDS011;56467;53.502;49.248;2023-06-22T01:53:14;1.33;;;0.98;;
69319;SDS011;56467;53.502;49.248;2023-06-22T01:55:40;0.80;;;0.80;;
69319;SDS011;56467;53.502;49.248;2023-06-22T01:58:06;1.88;;;0.90;;
69319;SDS011;56467;53.502;49.248;2023-06-22T02:00:32;1.23;;;1.00;;
69319;SDS011;56467;53.502;49.248;2023-06-22T02:03:03;1.25;;;0.95;;
69319;SDS011;56467;53.502;49.248;2023-06-22T02:05:36;1.30;;;1.08;;
69319;SDS011;56467;53.502;49.248;2023-06-22T02:10:37;1.45;;;1.00;;
69319;SDS011;56467;53.502;49.248;2023-06-22T02:13:06;0.90;;;0.75;;
69319;SDS011;56467;53.502;49.248;2023-06-22T02:15:34;1.10;;;1.00;;
69319;SDS011;56467;53.502;49.248;2023-06-22T02:18:00;1.00;;;0.88;;
69319;SDS011;56467;53.502;49.248;2023-06-22T02:20:26;1.00;;;0.80;;
69319;SDS011;56467;53.502;49.248;2023-06-22T02:22:52;0.80;;;0.80;;
69319;SDS011;56467;53.502;49.248;2023-06-22T02:25:17;1.00;;;0.90;;
69319;SDS011;56467;53.502;49.248;2023-06-22T02:27:44;1.42;;;0.90;;
69319;SDS011;56467;53.502;49.248;2023-06-22T02:30:10;0.90;;;0.80;;
69319;SDS011;56467;53.502;49.248;2023-06-22T02:32:37;1.98;;;1.10;;
69319;SDS011;56467;53.502;49.248;2023-06-22T02:35:02;1.52;;;1.00;;
69319;SDS011;56467;53.502;49.248;2023-06-22T02:37:31;1.15;;;0.90;;
69319;SDS011;56467;53.502;49.248;2023-06-22T02:39:57;0.88;;;0.85;;
69319;SDS011;56467;53.502;49.248;2023-06-22T02:42:23;1.13;;;1.00;;
69319;SDS011;56467;53.502;49.248;2023-06-22T02:44:49;1.00;;;0.70;;
69319;SDS011;56467;53.502;49.248;2023-06-22T02:47:15;1.30;;;1.00;;
69319;SDS011;56467;53.502;49.248;2023-06-22T02:49:40;1.15;;;0.88;;
69319;SDS011;56467;53.502;49.248;2023-06-22T02:52:07;0.88;;;0.85;;
69319;SDS011;56467;53.502;49.248;2023-06-22T02:54:32;1.10;;;1.00;;
69319;SDS011;56467;53.502;49.248;2023-06-22T02:56:58;1.15;;;0.90;;
69319;SDS011;56467;53.502;49.248;2023-06-22T02:59:27;1.30;;;0.90;;
69319;SDS011;56467;53.502;49.248;2023-06-22T03:01:53;1.17;;;1.00;;
69319;SDS011;56467;53.502;49.248;2023-06-22T03:04:19;1.13;;;1.02;;
69319;SDS011;56467;53.502;49.248;2023-06-22T03:06:44;1.52;;;0.90;;
69319;SDS011;56467;53.502;49.248;2023-06-22T03:09:16;0.90;;;0.80;;
69319;SDS011;56467;53.502;49.248;2023-06-22T03:11:42;1.17;;;0.80;;
69319;SDS011;56467;53.502;49.248;2023-06-22T03:14:07;1.48;;;0.85;;
69319;SDS011;56467;53.502;49.248;2023-06-22T03:16:33;1.63;;;1.10;;
69319;SDS011;56467;53.502;49.248;2023-06-22T03:18:59;1.17;;;0.98;;
69319;SDS011;56467;53.502;49.248;2023-06-22T03:21:27;1.70;;;0.90;;
69319;SDS011;56467;53.502;49.248;2023-06-22T03:23:53;0.82;;;0.70;;
69319;SDS011;56467;53.502;49.248;2023-06-22T03:26:20;1.08;;;0.80;;
69319;SDS011;56467;53.502;49.248;2023-06-22T03:28:46;0.90;;;0.90;;
69319;SDS011;56467;53.502;49.248;2023-06-22T03:31:12;1.75;;;0.90;;
69319;SDS011;56467;53.502;49.248;2023-06-22T03:33:37;1.00;;;0.80;;
69319;SDS011;56467;53.502;49.248;2023-06-22T03:36:03;0.90;;;0.90;;
69319;SDS011;56467;53.502;49.248;2023-06-22T03:38:29;1.08;;;0.70;;
69319;SDS011;56467;53.502;49.248;2023-06-22T03:40:54;1.20;;;0.80;;
69319;SDS011;56467;53.502;49.248;2023-06-22T03:43:20;1.13;;;0.90;;
69319;SDS011;56467;53.502;49.248;2023-06-22T03:45:46;0.93;;;0.82;;
69319;SDS011;56467;53.502;49.248;2023-06-22T03:48:12;0.93;;;0.80;;
69319;SDS011;56467;53.502;49.248;2023-06-22T03:50:38;1.27;;;0.90;;
69319;SDS011;56467;53.502;49.248;2023-06-22T03:53:03;1.20;;;0.80;;
69319;SDS011;56467;53.502;49.248;2023-06-22T03:55:29;1.00;;;0.90;;
69319;SDS011;56467;53.502;49.248;2023-06-22T03:57:55;0.90;;;0.80;;
69319;SDS011;56467;53.502;49.248;2023-06-22T04:00:22;0.93;;;0.82;;
69319;SDS011;56467;53.502;49.248;2023-06-22T04:02:48;1.15;;;0.82;;
69319;SDS011;56467;53.502;49.248;2023-06-22T04:05:14;1.55;;;0.73;;
69319;SDS011;56467;53.502;49.248;2023-06-22T04:07:42;1.63;;;0.90;;
69319;SDS011;56467;53.502;49.248;2023-06-22T04:10:08;0.90;;;0.80;;
69319;SDS011;56467;53.502;49.248;2023-06-22T04:12:34;0.70;;;0.70;;
69319;SDS011;56467;53.502;49.248;2023-06-22T04:14:59;1.77;;;0.90;;
69319;SDS011;56467;53.502;49.248;2023-06-22T04:17:25;0.98;;;0.80;;
69319;SDS011;56467;53.502;49.248;2023-06-22T04:19:51;1.10;;;0.90;;
69319;SDS011;56467;53.502;49.248;2023-06-22T04:22:17;0.98;;;0.90;;
69319;SDS011;56467;53.502;49.248;2023-06-22T04:24:42;1.33;;;0.90;;
69319;SDS011;56467;53.502;49.248;2023-06-22T04:27:09;1.10;;;0.70;;
69319;SDS011;56467;53.502;49.248;2023-06-22T04:29:34;0.93;;;0.80;;
69319;SDS011;56467;53.502;49.248;2023-06-22T04:32:00;1.10;;;0.88;;
69319;SDS011;56467;53.502;49.248;2023-06-22T04:34:30;1.00;;;0.90;;
69319;SDS011;56467;53.502;49.248;2023-06-22T04:36:56;1.13;;;0.80;;
69319;SDS011;56467;53.502;49.248;2023-06-22T04:39:23;0.90;;;0.80;;
69319;SDS011;56467;53.502;49.248;2023-06-22T04:41:49;0.90;;;0.80;;
69319;SDS011;56467;53.502;49.248;2023-06-22T04:44:19;0.82;;;0.80;;
69319;SDS011;56467;53.502;49.248;2023-06-22T04:46:50;1.45;;;0.82;;
69319;SDS011;56467;53.502;49.248;2023-06-22T04:49:25;1.60;;;0.82;;
69319;SDS011;56467;53.502;49.248;2023-06-22T04:52:04;1.00;;;0.90;;
69319;SDS011;56467;53.502;49.248;2023-06-22T04:54:31;0.70;;;0.70;;
69319;SDS011;56467;53.502;49.248;2023-06-22T04:57:03;0.85;;;0.75;;
69319;SDS011;56467;53.502;49.248;2023-06-22T04:59:36;1.23;;;0.80;;
69319;SDS011;56467;53.502;49.248;2023-06-22T05:02:04;0.90;;;0.73;;
69319;SDS011;56467;53.502;49.248;2023-06-22T05:04:30;0.95;;;0.82;;
69319;SDS011;56467;53.502;49.248;2023-06-22T05:06:56;0.73;;;0.73;;
69319;SDS011;56467;53.502;49.248;2023-06-22T05:09:23;0.90;;;0.70;;
69319;SDS011;56467;53.502;49.248;2023-06-22T05:11:52;0.82;;;0.65;;
69319;SDS011;56467;53.502;49.248;2023-06-22T05:14:18;1.58;;;1.00;;
69319;SDS011;56467;53.502;49.248;2023-06-22T05:16:44;1.35;;;0.75;;
69319;SDS011;56467;53.502;49.248;2023-06-22T05:19:10;1.35;;;1.00;;
69319;SDS011;56467;53.502;49.248;2023-06-22T05:21:37;1.55;;;1.00;;
69319;SDS011;56467;53.502;49.248;2023-06-22T05:24:03;0.90;;;0.70;;
69319;SDS011;56467;53.502;49.248;2023-06-22T05:26:30;1.15;;;0.90;;
69319;SDS011;56467;53.502;49.248;2023-06-22T05:28:56;1.05;;;0.80;;
69319;SDS011;56467;53.502;49.248;2023-06-22T05:31:23;1.83;;;0.93;;
69319;SDS011;56467;53.502;49.248;2023-06-22T05:33:50;1.27;;;0.85;;
69319;SDS011;56467;53.502;49.248;2023-06-22T05:36:17;1.10;;;1.00;;
69319;SDS011;56467;53.502;49.248;2023-06-22T05:38:44;1.10;;;1.00;;
69319;SDS011;56467;53.502;49.248;2023-06-22T05:41:10;1.50;;;1.08;;
69319;SDS011;56467;53.502;49.248;2023-06-22T05:43:36;1.45;;;1.10;;
69319;SDS011;56467;53.502;49.248;2023-06-22T05:46:03;2.25;;;1.10;;
69319;SDS011;56467;53.502;49.248;2023-06-22T05:48:29;2.15;;;1.30;;
69319;SDS011;56467;53.502;49.248;2023-06-22T05:50:55;3.10;;;1.15;;
69319;SDS011;56467;53.502;49.248;2023-06-22T05:53:20;1.55;;;1.00;;
69319;SDS011;56467;53.502;49.248;2023-06-22T05:55:46;1.90;;;1.10;;
69319;SDS011;56467;53.502;49.248;2023-06-22T05:58:12;2.38;;;1.23;;
69319;SDS011;56467;53.502;49.248;2023-06-22T06:00:38;4.85;;;1.10;;
69319;SDS011;56467;53.502;49.248;2023-06-22T06:03:05;3.20;;;1.42;;
69319;SDS011;56467;53.502;49.248;2023-06-22T06:05:32;1.38;;;1.00;;
69319;SDS011;56467;53.502;49.248;2023-06-22T06:08:01;3.10;;;1.00;;
69319;SDS011;56467;53.502;49.248;2023-06-22T06:10:30;1.50;;;1.00;;
69319;SDS011;56467;53.502;49.248;2023-06-22T06:12:57;1.58;;;1.00;;
69319;SDS011;56467;53.502;49.248;2023-06-22T06:15:22;1.75;;;1.00;;
69319;SDS011;56467;53.502;49.248;2023-06-22T06:17:49;3.88;;;1.10;;
69319;SDS011;56467;53.502;49.248;2023-06-22T06:20:19;1.80;;;1.02;;
69319;SDS011;56467;53.502;49.248;2023-06-22T06:22:47;2.60;;;1.10;;
69319;SDS011;56467;53.502;49.248;2023-06-22T06:25:13;2.47;;;1.13;;
69319;SDS011;56467;53.502;49.248;2023-06-22T06:27:43;1.85;;;1.00;;
69319;SDS011;56467;53.502;49.248;2023-06-22T06:30:12;3.67;;;1.17;;
69319;SDS011;56467;53.502;49.248;2023-06-22T06:32:39;2.25;;;0.95;;
69319;SDS011;56467;53.502;49.248;2023-06-22T06:35:06;2.50;;;1.08;;
69319;SDS011;56467;53.502;49.248;2023-06-22T06:37:36;2.33;;;1.13;;
69319;SDS011;56467;53.502;49.248;2023-06-22T06:40:06;1.85;;;1.10;;
69319;SDS011;56467;53.502;49.248;2023-06-22T06:42:47;2.40;;;1.08;;
69319;SDS011;56467;53.502;49.248;2023-06-22T06:47:43;1.58;;;0.90;;
69319;SDS011;56467;53.502;49.248;2023-06-22T06:50:10;2.78;;;1.27;;
69319;SDS011;56467;53.502;49.248;2023-06-22T06:52:36;3.75;;;1.10;;
69319;SDS011;56467;53.502;49.248;2023-06-22T06:55:02;1.80;;;1.10;;
69319;SDS011;56467;53.502;49.248;2023-06-22T06:57:31;3.42;;;1.10;;
69319;SDS011;56467;53.502;49.248;2023-06-22T06:59:59;3.90;;;1.27;;
69319;SDS011;56467;53.502;49.248;2023-06-22T07:02:25;3.30;;;1.02;;
69319;SDS011;56467;53.502;49.248;2023-06-22T07:04:55;1.45;;;0.90;;
69319;SDS011;56467;53.502;49.248;2023-06-22T07:07:20;3.45;;;1.10;;
69319;SDS011;56467;53.502;49.248;2023-06-22T07:09:46;3.05;;;1.10;;
69319;SDS011;56467;53.502;49.248;2023-06-22T07:12:12;1.20;;;1.00;;
69319;SDS011;56467;53.502;49.248;2023-06-22T07:14:37;2.78;;;0.98;;
69319;SDS011;56467;53.502;49.248;2023-06-22T07:17:04;2.40;;;1.15;;
69319;SDS011;56467;53.502;49.248;2023-06-22T07:19:29;3.95;;;1.10;;
69319;SDS011;56467;53.502;49.248;2023-06-22T07:21:56;2.22;;;1.00;;
69319;SDS011;56467;53.502;49.248;2023-06-22T07:24:22;3.00;;;0.98;;
69319;SDS011;56467;53.502;49.248;2023-06-22T07:26:50;2.35;;;0.90;;
69319;SDS011;56467;53.502;49.248;2023-06-22T07:29:16;2.28;;;1.10;;
69319;SDS011;56467;53.502;49.248;2023-06-22T07:31:42;2.40;;;0.93;;
69319;SDS011;56467;53.502;49.248;2023-06-22T07:34:08;1.60;;;0.82;;
69319;SDS011;56467;53.502;49.248;2023-06-22T07:36:34;2.92;;;1.02;;
69319;SDS011;56467;53.502;49.248;2023-06-22T07:39:01;2.72;;;0.80;;
69319;SDS011;56467;53.502;49.248;2023-06-22T07:41:29;2.90;;;1.00;;
69319;SDS011;56467;53.502;49.248;2023-06-22T07:43:55;2.45;;;1.00;;
69319;SDS011;56467;53.502;49.248;2023-06-22T07:46:21;1.65;;;0.80;;
69319;SDS011;56467;53.502;49.248;2023-06-22T07:48:47;1.52;;;0.90;;
69319;SDS011;56467;53.502;49.248;2023-06-22T07:51:13;1.70;;;0.98;;
69319;SDS011;56467;53.502;49.248;2023-06-22T07:53:40;6.40;;;2.90;;
69319;SDS011;56467;53.502;49.248;2023-06-22T07:56:07;4.63;;;3.35;;
69319;SDS011;56467;53.502;49.248;2023-06-22T07:58:35;6.57;;;2.97;;
69319;SDS011;56467;53.502;49.248;2023-06-22T08:01:01;4.43;;;2.38;;
69319;SDS011;56467;53.502;49.248;2023-06-22T08:03:26;4.68;;;2.53;;
69319;SDS011;56467;53.502;49.248;2023-06-22T08:05:52;6.25;;;2.22;;
69319;SDS011;56467;53.502;49.248;2023-06-22T08:08:17;7.45;;;2.13;;
69319;SDS011;56467;53.502;49.248;2023-06-22T08:10:43;4.40;;;1.92;;
69319;SDS011;56467;53.502;49.248;2023-06-22T08:13:09;4.43;;;2.10;;
69319;SDS011;56467;53.502;49.248;2023-06-22T08:15:35;4.95;;;1.77;;
69319;SDS011;56467;53.502;49.248;2023-06-22T08:18:01;3.42;;;1.70;;
69319;SDS011;56467;53.502;49.248;2023-06-22T08:20:27;3.55;;;1.85;;
69319;SDS011;56467;53.502;49.248;2023-06-22T08:22:53;3.58;;;1.70;;
69319;SDS011;56467;53.502;49.248;2023-06-22T08:25:19;5.00;;;1.60;;
69319;SDS011;56467;53.502;49.248;2023-06-22T08:27:46;5.30;;;1.80;;
69319;SDS011;56467;53.502;49.248;2023-06-22T08:30:15;5.43;;;1.85;;
69319;SDS011;56467;53.502;49.248;2023-06-22T08:32:43;3.13;;;1.60;;
69319;SDS011;56467;53.502;49.248;2023-06-22T08:35:09;5.18;;;1.92;;
69319;SDS011;56467;53.502;49.248;2023-06-22T08:37:35;3.45;;;1.85;;
69319;SDS011;56467;53.502;49.248;2023-06-22T08:40:02;2.42;;;1.42;;
69319;SDS011;56467;53.502;49.248;2023-06-22T08:42:33;2.63;;;1.50;;
69319;SDS011;56467;53.502;49.248;2023-06-22T08:44:59;3.15;;;1.50;;
69319;SDS011;56467;53.502;49.248;2023-06-22T08:47:24;4.93;;;2.58;;
69319;SDS011;56467;53.502;49.248;2023-06-22T08:49:50;7.20;;;3.72;;
69319;SDS011;56467;53.502;49.248;2023-06-22T08:52:17;6.07;;;3.58;;
69319;SDS011;56467;53.502;49.248;2023-06-22T08:54:44;5.38;;;3.00;;
69319;SDS011;56467;53.502;49.248;2023-06-22T08:57:10;4.55;;;2.50;;
69319;SDS011;56467;53.502;49.248;2023-06-22T08:59:36;4.20;;;2.25;;
69319;SDS011;56467;53.502;49.248;2023-06-22T09:02:02;3.67;;;2.20;;
69319;SDS011;56467;53.502;49.248;2023-06-22T09:04:27;4.93;;;2.20;;
69319;SDS011;56467;53.502;49.248;2023-06-22T09:06:53;5.07;;;2.10;;
69319;SDS011;56467;53.502;49.248;2023-06-22T09:09:19;3.58;;;2.00;;
69319;SDS011;56467;53.502;49.248;2023-06-22T09:11:46;3.53;;;2.10;;
69319;SDS011;56467;53.502;49.248;2023-06-22T09:14:12;3.55;;;1.63;;
69319;SDS011;56467;53.502;49.248;2023-06-22T09:16:38;4.60;;;1.77;;
69319;SDS011;56467;53.502;49.248;2023-06-22T09:19:03;2.95;;;1.73;;
69319;SDS011;56467;53.502;49.248;2023-06-22T09:21:29;5.80;;;2.10;;
69319;SDS011;56467;53.502;49.248;2023-06-22T09:23:55;2.30;;;1.60;;
69319;SDS011;56467;53.502;49.248;2023-06-22T09:26:20;3.78;;;1.80;;
69319;SDS011;56467;53.502;49.248;2023-06-22T09:28:47;2.45;;;1.52;;
69319;SDS011;56467;53.502;49.248;2023-06-22T09:31:13;3.25;;;1.50;;
69319;SDS011;56467;53.502;49.248;2023-06-22T09:33:39;4.55;;;1.40;;
69319;SDS011;56467;53.502;49.248;2023-06-22T09:36:06;2.40;;;1.52;;
69319;SDS011;56467;53.502;49.248;2023-06-22T09:38:38;2.22;;;1.48;;
69319;SDS011;56467;53.502;49.248;2023-06-22T09:41:04;1.42;;;1.20;;
69319;SDS011;56467;53.502;49.248;2023-06-22T09:43:31;2.85;;;1.65;;
69319;SDS011;56467;53.502;49.248;2023-06-22T09:46:00;3.47;;;1.42;;
69319;SDS011;56467;53.502;49.248;2023-06-22T09:48:27;2.25;;;1.45;;
69319;SDS011;56467;53.502;49.248;2023-06-22T09:50:53;4.03;;;1.40;;
69319;SDS011;56467;53.502;49.248;2023-06-22T09:53:19;4.03;;;1.48;;
69319;SDS011;56467;53.502;49.248;2023-06-22T09:55:44;4.40;;;1.30;;
69319;SDS011;56467;53.502;49.248;2023-06-22T09:58:10;1.52;;;1.23;;
69319;SDS011;56467;53.502;49.248;2023-06-22T10:00:36;3.85;;;1.40;;
69319;SDS011;56467;53.502;49.248;2023-06-22T10:03:01;2.45;;;1.42;;
69319;SDS011;56467;53.502;49.248;2023-06-22T10:05:27;2.25;;;1.38;;
69319;SDS011;56467;53.502;49.248;2023-06-22T10:07:52;3.42;;;1.60;;
69319;SDS011;56467;53.502;49.248;2023-06-22T10:10:18;5.15;;;2.70;;
69319;SDS011;56467;53.502;49.248;2023-06-22T10:12:47;2.33;;;2.00;;
69319;SDS011;56467;53.502;49.248;2023-06-22T10:15:21;2.90;;;2.20;;
69319;SDS011;56467;53.502;49.248;2023-06-22T10:17:47;4.50;;;2.42;;
69319;SDS011;56467;53.502;49.248;2023-06-22T10:20:12;4.22;;;2.15;;
69319;SDS011;56467;53.502;49.248;2023-06-22T10:22:41;3.47;;;1.92;;
69319;SDS011;56467;53.502;49.248;2023-06-22T10:25:08;10.48;;;3.70;;
69319;SDS011;56467;53.502;49.248;2023-06-22T10:27:34;32.88;;;10.95;;
69319;SDS011;56467;53.502;49.248;2023-06-22T10:30:00;31.08;;;9.73;;
69319;SDS011;56467;53.502;49.248;2023-06-22T10:32:26;26.23;;;7.93;;
69319;SDS011;56467;53.502;49.248;2023-06-22T10:34:53;18.75;;;6.82;;
69319;SDS011;56467;53.502;49.248;2023-06-22T10:37:19;19.48;;;6.55;;
69319;SDS011;56467;53.502;49.248;2023-06-22T10:39:45;17.20;;;6.47;;
69319;SDS011;56467;53.502;49.248;2023-06-22T10:42:11;16.85;;;6.18;;
69319;SDS011;56467;53.502;49.248;2023-06-22T10:44:37;16.30;;;5.13;;
69319;SDS011;56467;53.502;49.248;2023-06-22T10:47:05;14.13;;;4.68;;
69319;SDS011;56467;53.502;49.248;2023-06-22T10:49:31;12.52;;;4.00;;
69319;SDS011;56467;53.502;49.248;2023-06-22T10:51:57;8.93;;;3.30;;
69319;SDS011;56467;53.502;49.248;2023-06-22T10:54:22;9.15;;;3.28;;
69319;SDS011;56467;53.502;49.248;2023-06-22T10:56:48;8.65;;;2.90;;
69319;SDS011;56467;53.502;49.248;2023-06-22T10:59:14;7.25;;;2.65;;
69319;SDS011;56467;53.502;49.248;2023-06-22T11:01:40;4.95;;;2.25;;
69319;SDS011;56467;53.502;49.248;2023-06-22T11:04:05;4.88;;;1.98;;
69319;SDS011;56467;53.502;49.248;2023-06-22T11:06:31;5.43;;;1.90;;
69319;SDS011;56467;53.502;49.248;2023-06-22T11:08:57;5.90;;;2.30;;
69319;SDS011;56467;53.502;49.248;2023-06-22T11:11:23;4.82;;;1.90;;
69319;SDS011;56467;53.502;49.248;2023-06-22T11:13:50;4.28;;;1.65;;
69319;SDS011;56467;53.502;49.248;2023-06-22T11:16:16;3.88;;;1.60;;
69319;SDS011;56467;53.502;49.248;2023-06-22T11:18:41;2.95;;;1.73;;
69319;SDS011;56467;53.502;49.248;2023-06-22T11:21:07;5.38;;;1.48;;
69319;SDS011;56467;53.502;49.248;2023-06-22T11:23:32;4.38;;;1.65;;
69319;SDS011;56467;53.502;49.248;2023-06-22T11:25:58;2.90;;;1.55;;
69319;SDS011;56467;53.502;49.248;2023-06-22T11:28:24;2.63;;;1.65;;
69319;SDS011;56467;53.502;49.248;2023-06-22T11:30:49;4.97;;;2.88;;
69319;SDS011;56467;53.502;49.248;2023-06-22T11:33:15;5.80;;;3.08;;
69319;SDS011;56467;53.502;49.248;2023-06-22T11:35:40;10.60;;;6.85;;
69319;SDS011;56467;53.502;49.248;2023-06-22T11:38:06;17.27;;;9.63;;
69319;SDS011;56467;53.502;49.248;2023-06-22T11:40:35;12.77;;;7.45;;
69319;SDS011;56467;53.502;49.248;2023-06-22T11:43:01;9.45;;;5.38;;
69319;SDS011;56467;53.502;49.248;2023-06-22T11:45:26;8.10;;;4.82;;
69319;SDS011;56467;53.502;49.248;2023-06-22T11:47:52;8.05;;;4.07;;
69319;SDS011;56467;53.502;49.248;2023-06-22T11:50:18;6.03;;;3.50;;
69319;SDS011;56467;53.502;49.248;2023-06-22T11:52:43;6.32;;;3.55;;
69319;SDS011;56467;53.502;49.248;2023-06-22T11:55:09;5.78;;;3.33;;
69319;SDS011;56467;53.502;49.248;2023-06-22T11:57:35;6.78;;;2.80;;
69319;SDS011;56467;53.502;49.248;2023-06-22T12:00:03;6.43;;;2.72;;
69319;SDS011;56467;53.502;49.248;2023-06-22T12:02:42;4.82;;;2.30;;
69319;SDS011;56467;53.502;49.248;2023-06-22T12:05:08;3.95;;;2.10;;
69319;SDS011;56467;53.502;49.248;2023-06-22T12:07:34;4.10;;;2.10;;
69319;SDS011;56467;53.502;49.248;2023-06-22T12:09:59;3.72;;;1.90;;
69319;SDS011;56467;53.502;49.248;2023-06-22T12:12:25;3.60;;;1.63;;
69319;SDS011;56467;53.502;49.248;2023-06-22T12:14:50;3.90;;;1.50;;
69319;SDS011;56467;53.502;49.248;2023-06-22T12:17:16;2.38;;;1.70;;
69319;SDS011;56467;53.502;49.248;2023-06-22T12:19:42;1.65;;;1.35;;
69319;SDS011;56467;53.502;49.248;2023-06-22T12:22:07;2.45;;;1.42;;
69319;SDS011;56467;53.502;49.248;2023-06-22T12:24:33;2.60;;;1.60;;
69319;SDS011;56467;53.502;49.248;2023-06-22T12:26:58;2.80;;;1.80;;
69319;SDS011;56467;53.502;49.248;2023-06-22T12:29:24;2.85;;;1.50;;
69319;SDS011;56467;53.502;49.248;2023-06-22T12:31:50;2.25;;;1.40;;
69319;SDS011;56467;53.502;49.248;2023-06-22T12:34:15;4.07;;;1.38;;
69319;SDS011;56467;53.502;49.248;2023-06-22T12:36:41;2.15;;;1.42;;
69319;SDS011;56467;53.502;49.248;2023-06-22T12:39:06;2.83;;;1.45;;
69319;SDS011;56467;53.502;49.248;2023-06-22T12:41:32;3.20;;;1.27;;
69319;SDS011;56467;53.502;49.248;2023-06-22T12:43:58;3.25;;;1.48;;
69319;SDS011;56467;53.502;49.248;2023-06-22T12:46:23;1.90;;;1.30;;
69319;SDS011;56467;53.502;49.248;2023-06-22T12:48:49;2.17;;;1.35;;
69319;SDS011;56467;53.502;49.248;2023-06-22T12:51:23;2.55;;;1.20;;
69319;SDS011;56467;53.502;49.248;2023-06-22T12:53:49;2.40;;;1.38;;
69319;SDS011;56467;53.502;49.248;2023-06-22T12:56:15;2.05;;;1.10;;
69319;SDS011;56467;53.502;49.248;2023-06-22T12:58:41;2.40;;;1.30;;
69319;SDS011;56467;53.502;49.248;2023-06-22T13:01:06;2.17;;;1.13;;
69319;SDS011;56467;53.502;49.248;2023-06-22T13:03:32;1.67;;;1.40;;
69319;SDS011;56467;53.502;49.248;2023-06-22T13:05:57;4.78;;;1.33;;
69319;SDS011;56467;53.502;49.248;2023-06-22T13:08:23;2.10;;;1.20;;
69319;SDS011;56467;53.502;49.248;2023-06-22T13:10:49;2.85;;;1.35;;
69319;SDS011;56467;53.502;49.248;2023-06-22T13:13:14;2.05;;;1.17;;
69319;SDS011;56467;53.502;49.248;2023-06-22T13:15:40;1.73;;;1.33;;
69319;SDS011;56467;53.502;49.248;2023-06-22T13:18:06;2.55;;;1.13;;
69319;SDS011;56467;53.502;49.248;2023-06-22T13:20:31;3.03;;;1.42;;
69319;SDS011;56467;53.502;49.248;2023-06-22T13:22:57;1.42;;;1.20;;
69319;SDS011;56467;53.502;49.248;2023-06-22T13:25:22;2.00;;;1.35;;
69319;SDS011;56467;53.502;49.248;2023-06-22T13:27:51;1.33;;;1.23;;
69319;SDS011;56467;53.502;49.248;2023-06-22T13:30:17;2.15;;;1.25;;
69319;SDS011;56467;53.502;49.248;2023-06-22T13:32:43;3.50;;;1.20;;
69319;SDS011;56467;53.502;49.248;2023-06-22T13:35:09;2.33;;;1.30;;
69319;SDS011;56467;53.502;49.248;2023-06-22T13:37:35;3.17;;;1.55;;
69319;SDS011;56467;53.502;49.248;2023-06-22T13:40:01;1.55;;;1.10;;
69319;SDS011;56467;53.502;49.248;2023-06-22T13:42:30;1.73;;;1.20;;
69319;SDS011;56467;53.502;49.248;2023-06-22T13:44:55;2.03;;;1.20;;
69319;SDS011;56467;53.502;49.248;2023-06-22T13:47:21;2.10;;;1.20;;
69319;SDS011;56467;53.502;49.248;2023-06-22T13:49:47;2.63;;;1.20;;
69319;SDS011;56467;53.502;49.248;2023-06-22T13:52:12;2.17;;;1.30;;
69319;SDS011;56467;53.502;49.248;2023-06-22T13:54:38;2.13;;;1.40;;
69319;SDS011;56467;53.502;49.248;2023-06-22T13:57:04;1.92;;;1.17;;
69319;SDS011;56467;53.502;49.248;2023-06-22T13:59:30;5.00;;;1.35;;
69319;SDS011;56467;53.502;49.248;2023-06-22T14:01:55;3.05;;;1.30;;
69319;SDS011;56467;53.502;49.248;2023-06-22T14:04:22;1.95;;;1.30;;
69319;SDS011;56467;53.502;49.248;2023-06-22T14:06:48;3.05;;;1.40;;
69319;SDS011;56467;53.502;49.248;2023-06-22T14:09:14;12.73;;;6.20;;
69319;SDS011;56467;53.502;49.248;2023-06-22T14:11:40;17.98;;;8.05;;
69319;SDS011;56467;53.502;49.248;2023-06-22T14:14:05;12.88;;;5.70;;
69319;SDS011;56467;53.502;49.248;2023-06-22T14:16:31;9.07;;;4.50;;
69319;SDS011;56467;53.502;49.248;2023-06-22T14:18:57;8.60;;;3.72;;
69319;SDS011;56467;53.502;49.248;2023-06-22T14:21:22;6.22;;;3.60;;
69319;SDS011;56467;53.502;49.248;2023-06-22T14:23:48;8.00;;;3.72;;
69319;SDS011;56467;53.502;49.248;2023-06-22T14:26:17;7.43;;;3.72;;
69319;SDS011;56467;53.502;49.248;2023-06-22T14:28:44;6.57;;;3.65;;
69319;SDS011;56467;53.502;49.248;2023-06-22T14:31:16;8.35;;;3.70;;
69319;SDS011;56467;53.502;49.248;2023-06-22T14:33:44;6.65;;;3.30;;
69319;SDS011;56467;53.502;49.248;2023-06-22T14:36:11;5.25;;;2.90;;
69319;SDS011;56467;53.502;49.248;2023-06-22T14:38:37;5.38;;;2.80;;
69319;SDS011;56467;53.502;49.248;2023-06-22T14:41:02;5.55;;;2.72;;